createdAt,value
2022-10-22T00:02:22.202Z,99.90
2022-10-22T00:04:50.033Z,99.90
2022-10-22T00:07:18.423Z,99.90
2022-10-22T00:09:45.442Z,99.90
2022-10-22T00:12:14.030Z,99.90
2022-10-22T00:14:41.425Z,99.90
2022-10-22T00:17:11.579Z,99.90
2022-10-22T00:19:39.282Z,99.90
2022-10-22T00:22:06.822Z,99.90
2022-10-22T00:24:34.990Z,99.90
2022-10-22T00:27:02.353Z,99.90
2022-10-22T00:29:29.571Z,99.90
2022-10-22T00:31:57.094Z,99.90
2022-10-22T00:34:24.470Z,99.90
2022-10-22T00:36:52.351Z,99.90
2022-10-22T00:39:21.398Z,99.90
2022-10-22T00:41:50.388Z,99.90
2022-10-22T00:44:54.899Z,99.90
2022-10-22T00:47:24.043Z,99.90
2022-10-22T00:49:52.377Z,99.90
2022-10-22T00:52:20.061Z,99.90
2022-10-22T00:54:47.011Z,99.90
2022-10-22T00:57:14.915Z,99.90
2022-10-22T00:59:41.801Z,99.90
2022-10-22T01:02:08.685Z,99.90
2022-10-22T01:04:35.557Z,99.90
2022-10-22T01:07:02.497Z,99.90
2022-10-22T01:09:29.296Z,99.90
2022-10-22T01:12:01.981Z,99.90
2022-10-22T01:14:36.517Z,99.90
2022-10-22T01:17:35.994Z,99.90
2022-10-22T01:20:12.821Z,99.90
2022-10-22T01:23:04.709Z,99.90
2022-10-22T01:25:35.714Z,99.90
2022-10-22T01:28:17.662Z,99.90
2022-10-22T01:30:46.351Z,99.90
2022-10-22T01:33:17.807Z,99.90
2022-10-22T01:35:45.772Z,99.90
2022-10-22T01:38:17.189Z,99.90
2022-10-22T01:40:44.111Z,99.90
2022-10-22T01:43:11.698Z,99.90
2022-10-22T01:45:52.222Z,99.90
2022-10-22T01:48:43.664Z,99.90
2022-10-22T01:51:19.562Z,99.90
2022-10-22T01:54:33.852Z,99.90
2022-10-22T01:57:31.582Z,99.90
2022-10-22T02:00:09.274Z,99.90
2022-10-22T02:03:04.231Z,99.90
2022-10-22T02:05:34.164Z,99.90
2022-10-22T02:08:10.017Z,99.90
2022-10-22T02:10:42.216Z,99.90
2022-10-22T02:13:16.075Z,99.90
2022-10-22T02:15:45.640Z,99.90
2022-10-22T02:18:14.358Z,99.90
2022-10-22T02:20:42.683Z,99.90
2022-10-22T02:23:11.245Z,99.90
2022-10-22T02:25:44.410Z,99.90
2022-10-22T02:28:25.023Z,99.90
2022-10-22T02:31:00.384Z,99.90
2022-10-22T02:33:42.426Z,99.90
2022-10-22T02:36:09.701Z,99.90
2022-10-22T02:38:37.207Z,99.90
2022-10-22T02:41:04.789Z,99.90
2022-10-22T02:43:38.789Z,99.90
2022-10-22T02:46:05.704Z,99.90
2022-10-22T02:48:32.564Z,99.90
2022-10-22T02:50:59.408Z,99.90
2022-10-22T02:53:26.231Z,99.90
2022-10-22T02:55:53.135Z,99.90
2022-10-22T02:58:20.024Z,99.90
2022-10-22T03:00:46.886Z,99.90
2022-10-22T03:03:13.841Z,99.90
2022-10-22T03:05:41.156Z,99.90
2022-10-22T03:08:08.058Z,99.90
2022-10-22T03:10:35.025Z,99.90
2022-10-22T03:13:01.960Z,99.90
2022-10-22T03:17:55.645Z,99.90
2022-10-22T03:20:22.537Z,99.90
2022-10-22T03:22:49.564Z,99.90
2022-10-22T03:25:21.862Z,99.90
2022-10-22T03:27:50.107Z,99.90
2022-10-22T03:30:17.128Z,99.90
2022-10-22T03:32:43.997Z,99.90
2022-10-22T03:35:10.867Z,99.90
2022-10-22T03:37:38.555Z,99.90
2022-10-22T03:40:07.773Z,99.90
2022-10-22T03:42:34.899Z,99.90
2022-10-22T03:45:01.830Z,99.90
2022-10-22T03:47:28.681Z,99.90
2022-10-22T03:49:55.607Z,99.90
2022-10-22T03:52:22.533Z,99.90
2022-10-22T03:54:49.345Z,99.90
2022-10-22T03:57:16.352Z,99.90
2022-10-22T03:59:44.853Z,99.90
2022-10-22T04:02:13.060Z,99.90
2022-10-22T04:04:40.100Z,99.90
2022-10-22T04:07:07.715Z,99.90
2022-10-22T04:09:35.325Z,99.90
2022-10-22T04:12:02.463Z,99.90
2022-10-22T04:14:29.275Z,99.90
2022-10-22T04:16:56.125Z,99.90
2022-10-22T04:19:23.086Z,99.90
2022-10-22T04:21:49.954Z,99.90
2022-10-22T04:24:16.784Z,99.90
2022-10-22T04:26:43.636Z,99.90
2022-10-22T04:29:13.555Z,99.90
2022-10-22T04:31:43.029Z,99.90
2022-10-22T04:34:09.879Z,99.90
2022-10-22T04:36:36.750Z,99.90
2022-10-22T04:39:04.922Z,99.90
2022-10-22T04:41:35.290Z,99.90
2022-10-22T04:44:03.274Z,99.90
2022-10-22T04:46:32.632Z,99.90
2022-10-22T04:48:59.475Z,99.90
2022-10-22T04:51:27.813Z,99.90
2022-10-22T04:53:54.793Z,99.90
2022-10-22T04:56:27.562Z,99.90
2022-10-22T04:58:59.253Z,99.90
2022-10-22T05:01:39.907Z,99.90
2022-10-22T05:04:13.674Z,99.90
2022-10-22T05:06:41.090Z,99.90
2022-10-22T05:09:12.187Z,99.90
2022-10-22T05:11:41.939Z,99.90
2022-10-22T05:14:10.468Z,99.90
2022-10-22T05:16:40.739Z,99.90
2022-10-22T05:19:08.204Z,99.90
2022-10-22T05:21:35.610Z,99.90
2022-10-22T05:24:02.502Z,99.90
2022-10-22T05:26:29.753Z,99.90
2022-10-22T05:28:56.575Z,99.90
2022-10-22T05:31:23.656Z,99.90
2022-10-22T05:33:50.511Z,99.90
2022-10-22T05:36:20.390Z,99.90
2022-10-22T05:38:47.722Z,99.90
2022-10-22T05:41:20.573Z,99.90
2022-10-22T05:43:47.581Z,99.90
2022-10-22T05:46:23.130Z,99.90
2022-10-22T05:48:55.260Z,99.90
2022-10-22T05:51:23.037Z,99.90
2022-10-22T05:53:56.817Z,99.90
2022-10-22T05:56:24.648Z,99.90
2022-10-22T05:58:52.092Z,99.90
2022-10-22T06:01:28.300Z,99.90
2022-10-22T06:03:57.381Z,99.90
2022-10-22T06:06:50.141Z,99.90
2022-10-22T06:09:16.999Z,99.90
2022-10-22T06:11:44.128Z,99.90
2022-10-22T06:14:11.413Z,99.90
2022-10-22T06:16:38.806Z,99.90
2022-10-22T06:19:05.849Z,99.90
2022-10-22T06:21:33.338Z,99.90
2022-10-22T06:24:01.734Z,99.90
2022-10-22T06:26:29.634Z,99.90
2022-10-22T06:28:57.414Z,99.90
2022-10-22T06:31:26.062Z,99.90
2022-10-22T06:33:53.083Z,99.90
2022-10-22T06:36:22.590Z,99.90
2022-10-22T06:38:52.885Z,99.90
2022-10-22T06:41:19.937Z,99.90
2022-10-22T06:43:47.008Z,99.90
2022-10-22T06:46:19.055Z,99.90
2022-10-22T06:48:52.640Z,99.90
2022-10-22T06:51:21.074Z,99.90
2022-10-22T06:53:48.408Z,99.90
2022-10-22T06:56:18.585Z,99.90
2022-10-22T06:58:52.043Z,99.90
2022-10-22T07:01:23.064Z,99.90
2022-10-22T07:03:53.897Z,99.90
2022-10-22T07:06:21.759Z,99.90
2022-10-22T07:08:48.989Z,99.90
2022-10-22T07:11:19.052Z,99.90
2022-10-22T07:13:46.551Z,99.90
2022-10-22T07:16:14.103Z,99.90
2022-10-22T07:18:41.644Z,99.90
2022-10-22T07:21:10.242Z,99.90
2022-10-22T07:23:37.293Z,99.90
2022-10-22T07:26:07.390Z,99.90
2022-10-22T07:28:35.507Z,99.90
2022-10-22T07:31:02.589Z,99.90
2022-10-22T07:33:29.485Z,99.90
2022-10-22T07:36:00.967Z,99.90
2022-10-22T07:38:28.704Z,99.90
2022-10-22T07:40:55.881Z,99.90
2022-10-22T07:43:22.833Z,99.90
2022-10-22T07:45:49.980Z,99.90
2022-10-22T07:48:17.382Z,99.90
2022-10-22T07:53:16.140Z,99.90
2022-10-22T07:55:43.009Z,99.90
2022-10-22T07:58:09.885Z,99.90
2022-10-22T08:00:37.722Z,99.90
2022-10-22T08:03:04.860Z,99.90
2022-10-22T08:05:31.680Z,99.90
2022-10-22T08:07:58.549Z,99.90
2022-10-22T08:10:25.407Z,99.90
2022-10-22T08:12:52.230Z,99.90
2022-10-22T08:15:19.133Z,99.90
2022-10-22T08:17:46.000Z,99.90
2022-10-22T08:20:12.792Z,99.90
2022-10-22T08:22:39.671Z,99.90
2022-10-22T08:25:06.915Z,99.90
2022-10-22T08:27:33.830Z,99.90
2022-10-22T08:30:00.656Z,99.90
2022-10-22T08:34:59.471Z,99.90
2022-10-22T08:37:26.341Z,99.90
2022-10-22T08:39:53.188Z,99.90
2022-10-22T08:42:29.003Z,99.90
2022-10-22T08:45:16.993Z,99.90
2022-10-22T08:48:03.252Z,99.90
2022-10-22T08:50:40.905Z,99.90
2022-10-22T08:53:22.294Z,99.90
2022-10-22T08:55:52.616Z,99.90
2022-10-22T08:58:20.353Z,99.90
2022-10-22T09:00:58.391Z,99.90
2022-10-22T09:03:35.376Z,99.90
2022-10-22T09:06:11.440Z,99.90
2022-10-22T09:08:39.604Z,99.90
2022-10-22T09:11:16.198Z,99.90
2022-10-22T09:13:45.383Z,99.90
2022-10-22T09:16:19.644Z,99.90
2022-10-22T09:19:11.140Z,99.90
2022-10-22T09:21:51.029Z,99.90
2022-10-22T09:24:29.547Z,99.90
2022-10-22T09:26:59.997Z,99.90
2022-10-22T09:29:33.044Z,99.90
2022-10-22T09:31:59.882Z,99.90
2022-10-22T09:34:28.245Z,99.90
2022-10-22T09:37:06.296Z,99.90
2022-10-22T09:39:39.252Z,99.90
2022-10-22T09:42:07.320Z,99.90
2022-10-22T09:44:35.855Z,99.90
2022-10-22T09:47:42.678Z,99.90
2022-10-22T09:50:24.991Z,99.90
2022-10-22T09:53:11.276Z,99.90
2022-10-22T09:55:40.707Z,99.90
2022-10-22T09:58:13.409Z,99.90
2022-10-22T10:00:43.516Z,99.90
2022-10-22T10:03:19.007Z,99.90
2022-10-22T10:05:52.615Z,99.90
2022-10-22T10:08:19.631Z,99.90
2022-10-22T10:10:53.960Z,99.90
2022-10-22T10:13:28.992Z,99.90
2022-10-22T10:16:07.848Z,99.90
2022-10-22T10:18:51.786Z,99.90
2022-10-22T10:21:39.713Z,99.90
2022-10-22T10:24:32.933Z,99.90
2022-10-22T10:27:31.069Z,99.90
2022-10-22T10:30:15.947Z,99.90
2022-10-22T10:33:13.755Z,99.90
2022-10-22T10:35:55.375Z,99.90
2022-10-22T10:38:43.432Z,99.90
2022-10-22T10:41:28.412Z,99.90
2022-10-22T10:44:16.358Z,99.90
2022-10-22T10:47:03.534Z,99.90
2022-10-22T10:49:37.171Z,99.90
2022-10-22T10:52:21.344Z,99.90
2022-10-22T10:55:18.461Z,99.90
2022-10-22T10:57:55.905Z,99.90
2022-10-22T11:00:23.828Z,99.90
2022-10-22T11:03:09.790Z,99.90
2022-10-22T11:05:50.175Z,99.90
2022-10-22T11:08:28.904Z,99.90
2022-10-22T11:11:11.417Z,99.90
2022-10-22T11:13:57.491Z,99.90
2022-10-22T11:16:35.684Z,99.90
2022-10-22T11:19:22.880Z,99.90
2022-10-22T11:22:15.154Z,99.80
2022-10-22T11:24:50.725Z,97.90
2022-10-22T11:28:10.410Z,96.30
2022-10-22T11:30:41.700Z,95.50
2022-10-22T11:33:14.925Z,96.20
2022-10-22T11:35:44.927Z,95.70
2022-10-22T11:38:18.544Z,95.20
2022-10-22T11:41:09.722Z,92.50
2022-10-22T11:44:07.991Z,91.40
2022-10-22T11:46:45.420Z,92.80
2022-10-22T11:49:15.194Z,94.20
2022-10-22T11:51:44.585Z,95.90
2022-10-22T11:54:26.750Z,97.60
2022-10-22T11:57:16.290Z,97.50
2022-10-22T12:00:00.433Z,97.80
2022-10-22T12:02:41.371Z,98.20
2022-10-22T12:05:39.115Z,97.60
2022-10-22T12:08:26.501Z,96.80
2022-10-22T12:11:19.287Z,94.80
2022-10-22T12:14:14.645Z,92.40
2022-10-22T12:17:00.955Z,89.80
2022-10-22T12:19:27.709Z,87.20
2022-10-22T12:22:32.616Z,86.30
2022-10-22T12:25:07.658Z,86.70
2022-10-22T12:27:41.023Z,86.40
2022-10-22T12:30:22.779Z,84.90
2022-10-22T12:32:54.004Z,83.40
2022-10-22T12:35:24.116Z,83.90
2022-10-22T12:38:00.553Z,81.30
2022-10-22T12:40:34.088Z,79.60
2022-10-22T12:43:28.997Z,82.70
2022-10-22T12:45:57.846Z,85.80
2022-10-22T12:48:30.704Z,86.60
2022-10-22T12:51:01.302Z,88.00
2022-10-22T12:53:32.402Z,89.30
2022-10-22T12:56:10.652Z,90.00
2022-10-22T12:58:48.753Z,90.00
2022-10-22T13:01:17.433Z,90.70
2022-10-22T13:04:03.353Z,90.50
2022-10-22T13:06:30.263Z,87.80
2022-10-22T13:09:00.226Z,84.30
2022-10-22T13:11:58.355Z,83.60
2022-10-22T13:14:25.107Z,80.90
2022-10-22T13:17:10.234Z,78.50
2022-10-22T13:19:38.473Z,78.10
2022-10-22T13:22:05.407Z,75.40
2022-10-22T13:24:32.251Z,73.50
2022-10-22T13:26:59.079Z,72.90
2022-10-22T13:29:25.940Z,71.10
2022-10-22T13:31:54.049Z,69.90
2022-10-22T13:34:23.696Z,70.90
2022-10-22T13:36:50.741Z,71.50
2022-10-22T13:39:24.696Z,72.70
2022-10-22T13:41:51.855Z,71.70
2022-10-22T13:44:19.704Z,72.30
2022-10-22T13:46:48.423Z,72.20
2022-10-22T13:49:22.524Z,72.20
2022-10-22T13:51:51.369Z,72.60
2022-10-22T13:54:23.787Z,73.30
2022-10-22T13:56:50.652Z,74.60
2022-10-22T13:59:19.853Z,74.60
2022-10-22T14:01:49.776Z,72.70
2022-10-22T14:04:16.555Z,71.40
2022-10-22T14:06:43.491Z,70.30
2022-10-22T14:09:16.127Z,70.10
2022-10-22T14:11:43.214Z,71.00
2022-10-22T14:14:14.108Z,70.30
2022-10-22T14:16:41.099Z,70.50
2022-10-22T14:19:10.366Z,70.00
2022-10-22T14:21:38.114Z,70.00
2022-10-22T14:24:08.183Z,72.50
2022-10-22T14:26:36.466Z,76.20
2022-10-22T14:29:09.405Z,79.90
2022-10-22T14:34:12.378Z,86.00
2022-10-22T14:36:39.335Z,90.40
2022-10-22T14:39:06.246Z,92.10
2022-10-22T14:41:33.313Z,92.90
2022-10-22T14:44:00.205Z,93.20
2022-10-22T14:46:27.140Z,92.50
2022-10-22T14:48:54.003Z,91.70
2022-10-22T14:51:23.149Z,91.50
2022-10-22T14:53:50.179Z,91.20
2022-10-22T14:56:21.411Z,91.00
2022-10-22T14:58:49.386Z,90.30
2022-10-22T15:01:16.723Z,87.90
2022-10-22T15:03:43.557Z,86.90
2022-10-22T15:06:10.471Z,85.60
2022-10-22T15:08:37.334Z,84.80
2022-10-22T15:11:10.719Z,83.20
2022-10-22T15:13:37.962Z,83.10
2022-10-22T15:16:09.949Z,83.90
2022-10-22T15:18:36.856Z,83.80
2022-10-22T15:21:07.466Z,83.70
2022-10-22T15:23:34.392Z,83.50
2022-10-22T15:26:01.245Z,83.00
2022-10-22T15:28:28.034Z,84.10
2022-10-22T15:31:00.342Z,84.30
2022-10-22T15:33:28.574Z,83.90
2022-10-22T15:35:56.204Z,83.80
2022-10-22T15:41:06.342Z,85.20
2022-10-22T15:43:34.310Z,84.90
2022-10-22T15:46:13.473Z,85.70
2022-10-22T15:48:40.485Z,86.50
2022-10-22T15:51:13.768Z,87.70
2022-10-22T15:53:41.375Z,88.80
2022-10-22T15:56:08.880Z,90.60
2022-10-22T15:58:35.898Z,92.50
2022-10-22T16:01:07.206Z,94.40
2022-10-22T16:03:34.940Z,96.60
2022-10-22T16:06:02.442Z,99.00
2022-10-22T16:08:29.753Z,99.90
2022-10-22T16:10:56.689Z,99.90
2022-10-22T16:13:24.849Z,99.90
2022-10-22T16:15:52.417Z,99.90
2022-10-22T16:18:21.509Z,99.90
2022-10-22T16:20:48.389Z,99.90
2022-10-22T16:23:18.740Z,99.90
2022-10-22T16:25:46.482Z,99.90
2022-10-22T16:28:13.815Z,99.90
2022-10-22T16:30:41.728Z,99.90
2022-10-22T16:33:10.649Z,99.90
2022-10-22T16:35:43.604Z,99.90
2022-10-22T16:38:11.076Z,99.90
2022-10-22T16:40:38.198Z,99.90
2022-10-22T16:43:05.764Z,99.90
2022-10-22T16:45:32.592Z,99.90
2022-10-22T16:47:59.418Z,99.90
2022-10-22T16:50:26.278Z,99.90
2022-10-22T16:52:53.069Z,99.90
2022-10-22T16:55:19.967Z,99.90
2022-10-22T16:57:51.959Z,99.90
2022-10-22T17:00:19.475Z,99.90
2022-10-22T17:02:52.018Z,99.90
2022-10-22T17:05:19.137Z,99.90
2022-10-22T17:07:45.991Z,99.90
2022-10-22T17:10:13.123Z,99.90
2022-10-22T17:12:40.356Z,99.90
2022-10-22T17:15:07.777Z,99.90
2022-10-22T17:17:35.117Z,99.90
2022-10-22T17:20:01.971Z,99.90
2022-10-22T17:22:29.106Z,99.90
2022-10-22T17:25:35.989Z,99.90
2022-10-22T17:28:02.827Z,99.90
2022-10-22T17:30:30.414Z,99.90
2022-10-22T17:32:57.323Z,99.90
2022-10-22T17:35:24.189Z,99.90
2022-10-22T17:37:51.078Z,99.90
2022-10-22T17:40:17.997Z,99.90
2022-10-22T17:42:45.569Z,99.90
2022-10-22T17:45:12.436Z,99.90
2022-10-22T17:47:39.666Z,99.90
2022-10-22T17:50:07.184Z,99.90
2022-10-22T17:52:34.081Z,99.90
2022-10-22T17:55:00.956Z,99.90
2022-10-22T17:57:27.918Z,99.90
2022-10-22T17:59:54.773Z,99.90
2022-10-22T18:02:21.669Z,99.90
2022-10-22T18:04:52.137Z,99.90
2022-10-22T18:07:19.145Z,99.90
2022-10-22T18:09:46.124Z,99.90
2022-10-22T18:12:13.943Z,99.90
2022-10-22T18:14:40.883Z,99.90
2022-10-22T18:17:08.303Z,99.90
2022-10-22T18:19:35.343Z,99.90
2022-10-22T18:22:02.587Z,99.90
2022-10-22T18:24:29.510Z,99.90
2022-10-22T18:26:56.411Z,99.90
2022-10-22T18:29:23.241Z,99.90
2022-10-22T18:31:50.213Z,99.90
2022-10-22T18:34:20.215Z,99.90
2022-10-22T18:36:50.061Z,99.90
2022-10-22T18:39:17.133Z,99.90
2022-10-22T18:41:44.248Z,99.90
2022-10-22T18:44:13.518Z,99.90
2022-10-22T18:46:40.943Z,99.90
2022-10-22T18:49:08.599Z,99.90
2022-10-22T18:51:36.450Z,99.90
2022-10-22T18:54:05.730Z,99.90
2022-10-22T18:56:48.414Z,99.90
2022-10-22T18:59:19.030Z,99.90
2022-10-22T19:01:45.910Z,99.90
2022-10-22T19:04:13.801Z,99.90
2022-10-22T19:06:44.476Z,99.90
2022-10-22T19:09:13.753Z,99.90
2022-10-22T19:11:40.921Z,99.90
2022-10-22T19:14:07.761Z,99.90
2022-10-22T19:16:35.235Z,99.90
2022-10-22T19:19:07.455Z,99.90
2022-10-22T19:21:35.212Z,99.90
2022-10-22T19:24:02.459Z,99.90
2022-10-22T19:26:30.722Z,99.90
2022-10-22T19:28:59.611Z,99.90
2022-10-22T19:31:27.761Z,99.90
2022-10-22T19:33:55.406Z,99.90
2022-10-22T19:36:27.984Z,99.90
2022-10-22T19:38:55.314Z,99.90
2022-10-22T19:41:23.681Z,99.90
2022-10-22T19:43:52.284Z,99.90
2022-10-22T19:46:20.861Z,99.90
2022-10-22T19:48:48.762Z,99.90
2022-10-22T19:51:18.780Z,99.90
2022-10-22T19:53:45.834Z,99.90
2022-10-22T19:56:17.051Z,99.90
2022-10-22T19:58:44.692Z,99.90
2022-10-22T20:01:13.435Z,99.90
2022-10-22T20:03:40.937Z,99.90
2022-10-22T20:06:09.753Z,99.90
2022-10-22T20:08:38.087Z,99.90
2022-10-22T20:11:07.500Z,99.90
2022-10-22T20:13:35.577Z,99.90
2022-10-22T20:16:02.714Z,99.90
2022-10-22T20:18:29.649Z,99.90
2022-10-22T20:20:56.464Z,99.90
2022-10-22T20:23:23.244Z,99.90
2022-10-22T20:25:50.068Z,99.90
2022-10-22T20:28:17.030Z,99.90
2022-10-22T20:30:45.246Z,99.90
2022-10-22T20:33:12.268Z,99.90
2022-10-22T20:35:39.392Z,99.90
2022-10-22T20:38:07.675Z,99.90
2022-10-22T20:40:34.805Z,99.90
2022-10-22T20:43:02.031Z,99.90
2022-10-22T20:45:29.236Z,99.90
2022-10-22T20:48:02.723Z,99.90
2022-10-22T20:50:32.125Z,99.90
2022-10-22T20:52:59.652Z,99.90
2022-10-22T20:55:27.025Z,99.90
2022-10-22T20:57:54.187Z,99.90
2022-10-22T21:00:21.095Z,99.90
2022-10-22T21:02:47.964Z,99.90
2022-10-22T21:05:14.884Z,99.90
2022-10-22T21:07:42.037Z,99.90
2022-10-22T21:10:09.235Z,99.90
2022-10-22T21:12:36.076Z,99.90
2022-10-22T21:15:02.946Z,99.90
2022-10-22T21:17:29.758Z,99.90
2022-10-22T21:19:56.665Z,99.90
2022-10-22T21:22:23.543Z,99.90
2022-10-22T21:24:50.303Z,99.90
2022-10-22T21:27:17.253Z,99.90
2022-10-22T21:29:44.416Z,99.90
2022-10-22T21:32:11.533Z,99.90
2022-10-22T21:34:39.137Z,99.90
2022-10-22T21:37:06.083Z,99.90
2022-10-22T21:39:32.923Z,99.90
2022-10-22T21:41:59.818Z,99.90
2022-10-22T21:44:26.704Z,99.90
2022-10-22T21:46:53.574Z,99.90
2022-10-22T21:49:20.440Z,99.90
2022-10-22T21:51:47.317Z,99.90
2022-10-22T21:54:14.154Z,99.90
2022-10-22T21:56:41.235Z,99.90
2022-10-22T21:59:08.277Z,99.90
2022-10-22T22:01:35.609Z,99.90
2022-10-22T22:04:03.001Z,99.90
2022-10-22T22:06:33.552Z,99.90
2022-10-22T22:09:01.777Z,99.90
2022-10-22T22:11:29.195Z,99.90
2022-10-22T22:13:57.707Z,99.90
2022-10-22T22:16:31.057Z,99.90
2022-10-22T22:21:39.382Z,99.90
2022-10-22T22:24:07.355Z,99.90
2022-10-22T22:26:34.774Z,99.90
2022-10-22T22:29:01.687Z,99.90
2022-10-22T22:31:32.234Z,99.90
2022-10-22T22:34:13.652Z,99.90
2022-10-22T22:36:46.355Z,99.90
2022-10-22T22:39:15.609Z,99.90
2022-10-22T22:41:43.442Z,99.90
2022-10-22T22:44:10.379Z,99.90
2022-10-22T22:46:37.719Z,99.90
2022-10-22T22:49:05.286Z,99.90
2022-10-22T22:51:32.610Z,99.90
2022-10-22T22:54:00.386Z,99.90
2022-10-22T22:56:30.581Z,99.90
2022-10-22T22:58:57.905Z,99.90
2022-10-22T23:01:29.629Z,99.90
2022-10-22T23:04:07.463Z,99.90
2022-10-22T23:06:39.202Z,99.90
2022-10-22T23:09:08.389Z,99.90
2022-10-22T23:11:35.763Z,99.90
2022-10-22T23:14:05.343Z,99.90
2022-10-22T23:16:34.782Z,99.90
2022-10-22T23:19:03.080Z,99.90
2022-10-22T23:21:32.386Z,99.90
2022-10-22T23:24:02.103Z,99.90
2022-10-22T23:26:32.231Z,99.90
2022-10-22T23:29:07.248Z,99.90
2022-10-22T23:31:34.477Z,99.90
2022-10-22T23:34:01.310Z,99.90
2022-10-22T23:36:28.547Z,99.90
2022-10-22T23:38:55.791Z,99.90
2022-10-22T23:41:22.932Z,99.90
2022-10-22T23:43:50.720Z,99.90
2022-10-22T23:46:17.694Z,99.90
2022-10-22T23:48:44.505Z,99.90
2022-10-22T23:51:14.524Z,99.90
2022-10-22T23:53:42.751Z,99.90
2022-10-22T23:56:12.944Z,99.90
2022-10-22T23:58:39.947Z,99.90
